createdAt,value
2019-04-07T00:02:50.776Z,8.67
2019-04-07T00:08:07.360Z,7.73
2019-04-07T00:13:22.962Z,7.27
2019-04-07T00:18:38.895Z,8.77
2019-04-07T00:23:54.869Z,7.93
2019-04-07T00:29:10.963Z,8.53
2019-04-07T00:34:27.570Z,8.10
2019-04-07T00:39:43.550Z,8.40
2019-04-07T00:44:59.706Z,9.90
2019-04-07T00:50:16.161Z,6.77
2019-04-07T00:55:32.377Z,7.40
2019-04-07T01:00:48.984Z,6.17
2019-04-07T01:06:04.962Z,8.67
2019-04-07T01:11:20.894Z,7.20
2019-04-07T01:16:37.474Z,6.33
2019-04-07T01:21:54.566Z,8.03
2019-04-07T01:27:11.605Z,9.47
2019-04-07T01:32:27.363Z,8.00
2019-04-07T01:37:43.025Z,5.73
2019-04-07T01:43:13.365Z,5.60
2019-04-07T01:48:51.112Z,5.53
2019-04-07T01:54:24.956Z,7.60
2019-04-07T02:00:15.297Z,6.67
2019-04-07T02:06:02.016Z,7.03
2019-04-07T02:11:35.090Z,6.43
2019-04-07T02:16:57.793Z,8.93
2019-04-07T02:22:51.149Z,8.30
2019-04-07T02:28:28.622Z,6.63
2019-04-07T02:34:03.294Z,7.90
2019-04-07T02:39:43.811Z,8.90
2019-04-07T02:45:10.973Z,6.47
2019-04-07T02:50:46.533Z,7.60
2019-04-07T02:56:20.811Z,7.63
2019-04-07T03:01:55.354Z,8.23
2019-04-07T03:07:28.010Z,4.93
2019-04-07T03:13:11.352Z,7.80
2019-04-07T03:18:39.392Z,6.47
2019-04-07T03:24:17.054Z,7.50
2019-04-07T03:29:49.304Z,6.80
2019-04-07T03:35:30.102Z,7.03
2019-04-07T03:41:21.248Z,5.83
2019-04-07T03:46:45.465Z,7.53
2019-04-07T03:52:19.991Z,6.73
2019-04-07T03:57:47.870Z,7.10
2019-04-07T04:03:17.736Z,7.70
2019-04-07T04:08:46.400Z,6.03
2019-04-07T04:14:09.882Z,6.97
2019-04-07T04:19:26.155Z,8.47
2019-04-07T04:24:43.701Z,7.57
2019-04-07T04:29:59.620Z,6.27
2019-04-07T04:35:15.443Z,4.93
2019-04-07T04:40:32.109Z,5.60
2019-04-07T04:45:48.487Z,7.23
2019-04-07T04:51:05.266Z,9.63
2019-04-07T04:56:28.831Z,12.17
2019-04-07T05:01:44.924Z,6.30
2019-04-07T05:07:01.272Z,6.50
2019-04-07T05:12:17.660Z,8.63
2019-04-07T05:17:33.579Z,12.00
2019-04-07T05:22:49.633Z,9.10
2019-04-07T05:28:05.807Z,8.33
2019-04-07T05:33:23.290Z,9.37
2019-04-07T05:38:39.532Z,7.43
2019-04-07T05:43:55.769Z,8.80
2019-04-07T05:49:12.294Z,8.10
2019-04-07T05:54:29.557Z,7.30
2019-04-07T05:59:45.183Z,8.73
2019-04-07T06:05:04.116Z,10.50
2019-04-07T06:10:22.331Z,8.13
2019-04-07T06:15:38.179Z,8.30
2019-04-07T06:20:53.922Z,7.70
2019-04-07T06:26:11.873Z,10.07
2019-04-07T06:31:31.326Z,9.20
2019-04-07T06:36:45.372Z,8.23
2019-04-07T06:42:02.389Z,7.07
2019-04-07T06:47:32.886Z,7.63
2019-04-07T06:53:26.869Z,7.27
2019-04-07T06:59:01.579Z,7.77
2019-04-07T07:04:30.097Z,7.07
2019-04-07T07:09:52.133Z,8.73
2019-04-07T07:15:39.681Z,8.73
2019-04-07T07:21:13.388Z,8.20
2019-04-07T07:26:32.823Z,8.37
2019-04-07T07:31:46.343Z,9.07
2019-04-07T07:37:03.019Z,5.40
2019-04-07T07:42:22.385Z,7.53
2019-04-07T07:47:37.245Z,6.80
2019-04-07T07:52:54.599Z,6.87
2019-04-07T07:58:11.581Z,6.20
2019-04-07T08:03:28.125Z,6.70
2019-04-07T08:08:47.362Z,6.33
2019-04-07T08:14:02.468Z,5.90
2019-04-07T08:19:19.018Z,5.73
2019-04-07T08:24:35.148Z,5.33
2019-04-07T08:29:52.650Z,4.17
2019-04-07T08:35:09.933Z,6.20
2019-04-07T08:40:26.345Z,3.73
2019-04-07T08:45:42.485Z,3.97
2019-04-07T08:51:00.501Z,3.60
2019-04-07T08:56:16.516Z,3.80
2019-04-07T09:01:33.694Z,4.13
2019-04-07T09:06:50.544Z,3.87
2019-04-07T09:12:07.176Z,3.97
2019-04-07T09:17:44.525Z,4.03
2019-04-07T09:23:38.140Z,5.20
2019-04-07T09:29:24.961Z,3.27
2019-04-07T09:34:56.128Z,2.73
2019-04-07T09:40:30.324Z,4.33
2019-04-07T09:46:24.299Z,3.37
2019-04-07T09:52:17.985Z,3.43
2019-04-07T09:57:56.053Z,2.97
2019-04-07T10:03:21.931Z,2.90
2019-04-07T10:08:53.287Z,2.20
2019-04-07T10:14:46.646Z,2.63
2019-04-07T10:20:15.638Z,3.57
2019-04-07T10:25:59.393Z,3.33
2019-04-07T10:31:34.098Z,2.60
2019-04-07T10:37:05.438Z,2.97
2019-04-07T10:42:38.897Z,2.53
2019-04-07T10:48:12.382Z,2.20
2019-04-07T10:53:48.377Z,2.87
2019-04-07T10:59:26.774Z,2.57
2019-04-07T11:05:05.154Z,1.90
2019-04-07T11:10:41.956Z,2.93
2019-04-07T11:16:22.298Z,2.33
2019-04-07T11:21:53.009Z,2.63
2019-04-07T11:27:33.019Z,2.73
2019-04-07T11:33:03.559Z,3.53
2019-04-07T11:38:43.000Z,2.47
2019-04-07T11:44:19.916Z,1.97
2019-04-07T11:49:55.180Z,3.27
2019-04-07T11:55:30.099Z,2.50
2019-04-07T12:01:17.220Z,2.50
2019-04-07T12:06:51.536Z,2.87
2019-04-07T12:12:42.265Z,2.53
2019-04-07T12:18:36.411Z,2.37
2019-04-07T12:24:28.373Z,2.80
2019-04-07T12:29:58.763Z,7.87
2019-04-07T12:35:53.179Z,2.30
2019-04-07T12:41:35.776Z,1.77
2019-04-07T12:47:11.275Z,1.90
2019-04-07T12:52:45.206Z,1.80
2019-04-07T12:58:32.366Z,2.60
2019-04-07T13:04:20.064Z,2.07
2019-04-07T13:10:05.310Z,1.90
2019-04-07T13:15:52.136Z,2.00
2019-04-07T13:21:29.672Z,2.70
2019-04-07T13:27:07.499Z,2.00
2019-04-07T13:32:43.002Z,2.87
2019-04-07T13:38:16.455Z,2.17
2019-04-07T13:44:04.785Z,2.47
2019-04-07T13:49:41.358Z,1.97
2019-04-07T13:55:05.098Z,2.17
2019-04-07T14:00:46.958Z,2.33
2019-04-07T14:06:28.362Z,1.67
2019-04-07T14:12:10.565Z,2.20
2019-04-07T14:17:56.893Z,1.87
2019-04-07T14:23:19.834Z,1.77
2019-04-07T14:28:50.087Z,1.87
2019-04-07T14:34:26.124Z,2.13
2019-04-07T14:40:20.399Z,1.90
2019-04-07T14:45:52.650Z,1.97
2019-04-07T14:51:26.267Z,1.77
2019-04-07T14:56:54.248Z,2.30
2019-04-07T15:02:11.657Z,1.80
2019-04-07T15:07:50.306Z,1.80
2019-04-07T15:13:23.934Z,3.20
2019-04-07T15:18:38.201Z,2.00
2019-04-07T15:23:54.284Z,2.10
2019-04-07T15:29:15.987Z,2.13
2019-04-07T15:34:32.139Z,1.80
2019-04-07T15:39:48.026Z,1.70
2019-04-07T15:45:11.250Z,1.70
2019-04-07T15:50:29.285Z,1.60
2019-04-07T15:55:50.992Z,1.70
2019-04-07T16:01:02.786Z,1.77
2019-04-07T16:06:21.876Z,1.80
2019-04-07T16:11:38.117Z,2.40
2019-04-07T16:16:54.909Z,1.70
2019-04-07T16:22:13.968Z,2.23
2019-04-07T16:27:29.358Z,2.20
2019-04-07T16:32:45.330Z,2.03
2019-04-07T16:38:02.731Z,1.53
2019-04-07T16:43:20.104Z,2.47
2019-04-07T16:48:39.974Z,1.60
2019-04-07T16:53:56.357Z,1.70
2019-04-07T16:59:12.419Z,2.73
2019-04-07T17:04:29.983Z,2.33
2019-04-07T17:09:46.728Z,2.03
2019-04-07T17:15:04.537Z,2.17
2019-04-07T17:20:20.407Z,1.90
2019-04-07T17:25:36.291Z,2.23
2019-04-07T17:30:56.209Z,2.03
2019-04-07T17:36:10.355Z,2.70
2019-04-07T17:41:26.539Z,2.03
2019-04-07T17:47:16.134Z,1.80
2019-04-07T17:52:51.193Z,2.20
2019-04-07T17:58:17.196Z,2.20
2019-04-07T18:04:05.028Z,2.70
2019-04-07T18:09:39.503Z,3.47
2019-04-07T18:15:17.863Z,2.40
2019-04-07T18:21:07.206Z,2.67
2019-04-07T18:32:19.388Z,3.53
2019-04-07T18:38:00.195Z,3.40
2019-04-07T18:43:34.279Z,3.70
2019-04-07T18:49:19.163Z,3.17
2019-04-07T18:55:39.332Z,2.90
2019-04-07T19:01:22.309Z,3.33
2019-04-07T19:07:09.688Z,3.00
2019-04-07T19:13:34.670Z,2.77
2019-04-07T19:19:26.623Z,4.00
2019-04-07T19:25:27.021Z,3.20
2019-04-07T19:31:01.150Z,4.67
2019-04-07T19:36:34.904Z,3.80
2019-04-07T19:42:15.417Z,3.03
2019-04-07T19:47:59.393Z,4.17
2019-04-07T19:53:33.072Z,2.37
2019-04-07T19:59:11.492Z,2.30
2019-04-07T20:04:53.443Z,3.07
2019-04-07T20:10:30.394Z,3.93
2019-04-07T20:16:17.811Z,2.83
2019-04-07T20:22:03.318Z,3.23
2019-04-07T20:27:45.406Z,4.80
2019-04-07T20:33:18.825Z,3.57
2019-04-07T20:39:00.450Z,2.90
2019-04-07T20:45:13.579Z,3.33
2019-04-07T20:50:36.049Z,4.40
2019-04-07T20:56:12.643Z,4.33
2019-04-07T21:01:44.561Z,3.80
2019-04-07T21:07:15.346Z,3.20
2019-04-07T21:12:37.077Z,5.50
2019-04-07T21:18:06.439Z,5.03
2019-04-07T21:23:33.135Z,6.87
2019-04-07T21:28:56.757Z,6.00
2019-04-07T21:34:34.754Z,7.00
2019-04-07T21:40:04.920Z,7.43
2019-04-07T21:45:41.012Z,7.03
2019-04-07T21:51:15.337Z,6.87
2019-04-07T21:56:45.211Z,6.47
2019-04-07T22:02:33.431Z,5.63
2019-04-07T22:08:11.833Z,7.57
2019-04-07T22:13:23.845Z,4.97
2019-04-07T22:18:39.855Z,6.87
2019-04-07T22:23:56.191Z,4.50
2019-04-07T22:29:12.442Z,5.07
2019-04-07T22:34:32.276Z,5.10
2019-04-07T22:39:45.689Z,4.53
2019-04-07T22:45:02.124Z,4.37
2019-04-07T22:50:18.864Z,6.80
2019-04-07T22:55:36.179Z,5.10
2019-04-07T23:00:53.082Z,4.30
2019-04-07T23:06:09.403Z,3.20
2019-04-07T23:11:25.782Z,4.57
2019-04-07T23:16:42.284Z,4.17
2019-04-07T23:21:58.341Z,4.27
2019-04-07T23:27:14.578Z,3.37
2019-04-07T23:32:31.136Z,3.23
2019-04-07T23:37:47.209Z,5.00
2019-04-07T23:43:03.250Z,4.10
2019-04-07T23:48:19.181Z,3.23
2019-04-07T23:54:09.560Z,3.37
2019-04-07T23:59:26.754Z,3.63
